This is the latest recevied weather packets stored in our database for station/object OE3EMC-13. If no packets are shown the sender has not sent any weather packets the latest 10 day(s).
| Time | Temp. | Humidity | Pressure | Rain* | Wind** | Luminosity | Snow |
|---|---|---|---|---|---|---|---|
| 1777726992 | 26.11° C | 24% | 1100 hPa | 0 mm | - | - | - |
| 1777726392 | 25.56° C | 27% | 1100 hPa | 0 mm | - | - | - |
| 1777725791 | 25.56° C | 27% | 1100 hPa | 0 mm | - | - | - |
| 1777725191 | 25.56° C | 27% | 1100 hPa | 0 mm | - | - | - |
| 1777724592 | 25.56° C | 27% | 1100 hPa | 0 mm | - | - | - |
| 1777723991 | 25.56° C | 29% | 1100 hPa | 0 mm | - | - | - |
| 1777723392 | 25.56° C | 29% | 1100 hPa | 0 mm | - | - | - |
| 1777722791 | 25° C | 27% | 1100 hPa | 0 mm | - | - | - |
| 1777722192 | 25° C | 27% | 1100 hPa | 0 mm | - | - | - |
| 1777721590 | 24.44° C | 29% | 1100 hPa | 0 mm | - | - | - |
| 1777720991 | 24.44° C | 29% | 1100 hPa | 0 mm | - | - | - |
| 1777720392 | 23.33° C | 32% | 1100 hPa | 0 mm | - | - | - |
| 1777719791 | 23.33° C | 32% | 1100 hPa | 0 mm | - | - | - |
| 1777719191 | 23.33° C | 28% | 1100 hPa | 0 mm | - | - | - |
| 1777718590 | 23.33° C | 28% | 1100 hPa | 0 mm | - | - | - |
| 1777717990 | 22.22° C | 31% | 1100 hPa | 0 mm | - | - | - |
| 1777717390 | 22.22° C | 31% | 1100 hPa | 0 mm | - | - | - |
| 1777716794 | 22.22° C | 29% | 1100 hPa | 0 mm | - | - | - |
| 1777716194 | 22.22° C | 29% | 1100 hPa | 0 mm | - | - | - |
| 1777715595 | 21.67° C | 31% | 1100 hPa | 0 mm | - | - | - |
| 1777714994 | 21.67° C | 31% | 1100 hPa | 0 mm | - | - | - |
| 1777714395 | 20.56° C | 34% | 1100 hPa | 0 mm | - | - | - |
| 1777713794 | 20.56° C | 34% | 1100 hPa | 0 mm | - | - | - |
| 1777713193 | 20° C | 33% | 1100 hPa | 0 mm | - | - | - |
| 1777712594 | 20° C | 33% | 1100 hPa | 0 mm | - | - | - |
* Rain latest hour (hover to see other rain measurements)
** Current wind speed in m/s (hover to see current wind gust speed)